Time;durP1;ratioP1;P1;durP2;ratioP2;P2;SDS_P1;SDS_P2;PMS_P1;PMS_P2;Temp;Humidity;BMP_temperature;BMP_pressure;BME280_temperature;BME280_humidity;BME280_pressure;Samples;Min_cycle;Max_cycle;Signal;HPM_P1;HPM_P2
2023/04/08 00:02:14;;;;;;;14.20;10.30;;;8.80;99.90;;;;;;6098548;23;20214;-68
2023/04/08 00:04:40;;;;;;;16.57;12.30;;;8.80;99.90;;;;;;6112612;23;20443;-70
2023/04/08 00:07:06;;;;;;;17.10;10.70;;;8.80;99.90;;;;;;6112580;23;20143;-74
2023/04/08 00:09:32;;;;;;;15.07;9.20;;;8.80;99.90;;;;;;6064199;23;20145;-71
2023/04/08 00:11:57;;;;;;;10.83;8.20;;;8.80;99.90;;;;;;6087369;23;20420;-72
2023/04/08 00:14:23;;;;;;;23.57;12.87;;;8.80;99.90;;;;;;6112191;23;20148;-71
2023/04/08 00:16:49;;;;;;;15.13;11.70;;;8.80;99.90;;;;;;6123557;23;20379;-72
2023/04/08 00:19:14;;;;;;;15.93;10.90;;;8.80;99.90;;;;;;6115566;23;20453;-73
2023/04/08 00:21:40;;;;;;;17.37;11.70;;;8.80;99.90;;;;;;6091497;23;20255;-71
2023/04/08 00:24:06;;;;;;;15.60;10.90;;;8.80;99.90;;;;;;6111567;23;20158;-70
2023/04/08 00:26:33;;;;;;;17.87;11.50;;;8.80;99.90;;;;;;6145309;23;20132;-72
2023/04/08 00:28:59;;;;;;;17.90;12.23;;;8.80;99.90;;;;;;6092107;23;20211;-70
2023/04/08 00:31:25;;;;;;;15.13;10.90;;;8.80;99.90;;;;;;6091370;23;20832;-70
2023/04/08 00:33:50;;;;;;;22.40;13.97;;;8.80;99.90;;;;;;6154012;23;20402;-70
2023/04/08 00:36:16;;;;;;;28.57;16.43;;;8.80;99.90;;;;;;6150011;23;20391;-69
2023/04/08 00:38:42;;;;;;;18.90;12.73;;;8.80;99.90;;;;;;6123501;23;20195;-70
2023/04/08 00:41:07;;;;;;;23.47;13.70;;;8.70;99.90;;;;;;6134628;23;20462;-72
2023/04/08 00:43:33;;;;;;;14.97;11.60;;;8.70;99.90;;;;;;6075294;23;20232;-71
2023/04/08 00:45:59;;;;;;;21.77;11.60;;;8.70;99.90;;;;;;6120025;23;20200;-71
2023/04/08 00:48:24;;;;;;;15.43;10.00;;;8.70;99.90;;;;;;6119521;23;20219;-69
2023/04/08 00:50:50;;;;;;;19.13;11.40;;;8.70;99.90;;;;;;6152013;23;20509;-69
2023/04/08 00:53:18;;;;;;;14.43;11.23;;;8.70;99.90;;;;;;6113117;23;20195;-70
2023/04/08 00:55:44;;;;;;;18.47;12.00;;;8.70;99.90;;;;;;6150501;23;20167;-69
2023/04/08 00:58:12;;;;;;;14.50;10.30;;;8.70;99.90;;;;;;6112685;23;20448;-70
2023/04/08 01:00:42;;;;;;;16.77;11.10;;;8.80;99.90;;;;;;6114013;23;20518;-72
2023/04/08 01:03:22;;;;;;;22.47;11.10;;;8.70;99.90;;;;;;6137180;23;20856;-70
2023/04/08 01:06:03;;;;;;;20.40;11.70;;;8.80;99.90;;;;;;6111005;23;20383;-70
2023/04/08 01:08:31;;;;;;;14.40;10.83;;;8.70;99.90;;;;;;6109359;23;20434;-69
2023/04/08 01:11:00;;;;;;;22.37;14.13;;;8.70;99.90;;;;;;6147112;23;20372;-68
2023/04/08 01:13:29;;;;;;;19.93;12.17;;;8.70;99.90;;;;;;6147114;23;20415;-71
2023/04/08 01:15:55;;;;;;;21.50;12.10;;;8.70;99.90;;;;;;6147537;23;20372;-69
2023/04/08 01:18:22;;;;;;;21.80;13.30;;;8.70;99.90;;;;;;6112353;23;20383;-68
2023/04/08 01:20:49;;;;;;;18.40;13.70;;;8.70;99.90;;;;;;6148206;23;20442;-69
2023/04/08 01:23:28;;;;;;;17.27;11.67;;;8.70;99.90;;;;;;6145573;23;20404;-69
2023/04/08 01:25:54;;;;;;;19.53;12.10;;;8.70;99.90;;;;;;6147269;23;20705;-69
2023/04/08 01:28:23;;;;;;;17.43;11.63;;;8.70;99.90;;;;;;6139867;23;20769;-70
2023/04/08 01:30:51;;;;;;;20.37;11.60;;;8.70;99.90;;;;;;6140201;23;20371;-68
2023/04/08 01:33:18;;;;;;;17.93;10.20;;;8.70;99.90;;;;;;6139355;23;20407;-69
2023/04/08 01:35:45;;;;;;;18.90;13.90;;;8.60;99.90;;;;;;6130451;23;20495;-68
2023/04/08 01:38:17;;;;;;;16.93;12.57;;;8.60;99.90;;;;;;6104887;23;20482;-70
2023/04/08 01:40:43;;;;;;;18.93;12.67;;;8.60;99.90;;;;;;6140111;23;20404;-69
2023/04/08 01:43:12;;;;;;;23.47;13.70;;;8.60;99.90;;;;;;6139602;23;20392;-70
2023/04/08 01:45:37;;;;;;;17.07;12.70;;;8.60;99.90;;;;;;6139920;23;20439;-69
2023/04/08 01:48:04;;;;;;;28.27;15.53;;;8.60;99.90;;;;;;6104456;23;20670;-69
2023/04/08 01:50:31;;;;;;;20.40;13.43;;;8.60;99.90;;;;;;6104598;23;20140;-70
2023/04/08 01:52:58;;;;;;;19.23;13.00;;;8.60;99.90;;;;;;6139087;23;20838;-70
2023/04/08 01:55:26;;;;;;;20.40;13.13;;;8.60;99.90;;;;;;6139398;23;20383;-71
2023/04/08 01:57:53;;;;;;;17.33;11.43;;;8.50;99.90;;;;;;6139725;23;20375;-69
2023/04/08 02:00:25;;;;;;;24.53;13.90;;;8.60;99.90;;;;;;6105195;23;20415;-69
2023/04/08 02:02:52;;;;;;;21.23;14.17;;;8.50;99.90;;;;;;6139590;23;20478;-69
2023/04/08 02:05:18;;;;;;;16.77;11.90;;;8.60;99.90;;;;;;6139926;23;20368;-72
2023/04/08 02:07:45;;;;;;;17.03;11.03;;;8.50;99.90;;;;;;6140404;23;20819;-71
2023/04/08 02:10:11;;;;;;;19.33;12.47;;;8.50;99.90;;;;;;6104585;23;20183;-70
2023/04/08 02:12:37;;;;;;;22.80;12.40;;;8.60;99.90;;;;;;6128755;23;20699;-68
2023/04/08 02:15:08;;;;;;;19.27;13.47;;;8.60;99.90;;;;;;6104654;23;20392;-68
2023/04/08 02:17:53;;;;;;;18.17;12.50;;;8.60;99.90;;;;;;6140234;23;20455;-70
2023/04/08 02:20:31;;;;;;;19.37;11.90;;;8.60;99.90;;;;;;6141520;23;20411;-71
2023/04/08 02:23:15;;;;;;;27.80;16.60;;;8.60;99.90;;;;;;6140454;23;20399;-71
2023/04/08 02:25:44;;;;;;;25.37;15.80;;;8.50;99.90;;;;;;6140788;23;20643;-70
2023/04/08 02:28:11;;;;;;;24.63;15.90;;;8.50;99.90;;;;;;6103798;23;20376;-69
2023/04/08 02:30:41;;;;;;;20.10;14.30;;;8.50;99.90;;;;;;6139233;23;20384;-70
2023/04/08 02:33:08;;;;;;;17.90;13.30;;;8.50;99.90;;;;;;6112531;23;20446;-70
2023/04/08 02:35:35;;;;;;;26.43;16.63;;;8.50;99.90;;;;;;6103751;23;20402;-70
2023/04/08 02:38:01;;;;;;;18.80;13.67;;;8.50;99.90;;;;;;6138474;23;20678;-71
2023/04/08 02:40:30;;;;;;;23.67;14.77;;;8.50;99.90;;;;;;6102837;23;20455;-70
2023/04/08 02:42:56;;;;;;;19.33;13.20;;;8.50;99.90;;;;;;6103297;23;20474;-69
2023/04/08 02:45:37;;;;;;;17.57;12.53;;;8.50;99.90;;;;;;6129168;23;20684;-69
2023/04/08 02:48:04;;;;;;;21.00;14.17;;;8.50;99.90;;;;;;6138548;23;20386;-70
2023/04/08 02:50:30;;;;;;;20.13;13.40;;;8.50;99.90;;;;;;6103619;23;20386;-68
2023/04/08 02:52:56;;;;;;;23.73;13.80;;;8.50;99.90;;;;;;6103583;23;20837;-69
2023/04/08 02:55:21;;;;;;;24.33;15.27;;;8.50;99.90;;;;;;6103615;23;20152;-69
2023/04/08 02:57:47;;;;;;;27.80;17.37;;;8.40;99.90;;;;;;6138328;23;20506;-70
2023/04/08 03:00:13;;;;;;;25.37;16.60;;;8.40;99.90;;;;;;6139013;23;20164;-72
2023/04/08 03:02:39;;;;;;;28.37;19.33;;;8.40;99.90;;;;;;6138619;23;20395;-70
2023/04/08 03:05:05;;;;;;;38.20;19.50;;;8.40;99.90;;;;;;6138733;23;20926;-70
2023/04/08 03:07:32;;;;;;;32.23;20.00;;;8.40;99.90;;;;;;6139004;23;20363;-70
2023/04/08 03:09:57;;;;;;;27.20;17.10;;;8.30;99.90;;;;;;6139517;23;20946;-71
2023/04/08 03:12:23;;;;;;;25.23;18.03;;;8.30;99.90;;;;;;6141090;23;20431;-70
2023/04/08 03:14:49;;;;;;;25.77;18.07;;;8.20;99.90;;;;;;6140062;23;20140;-69
2023/04/08 03:17:15;;;;;;;35.77;20.23;;;8.30;99.90;;;;;;6138846;23;20490;-70
2023/04/08 03:19:41;;;;;;;25.97;18.30;;;8.30;99.90;;;;;;6138396;23;20450;-69
2023/04/08 03:22:08;;;;;;;25.30;15.70;;;8.30;99.90;;;;;;6138573;23;20395;-70
2023/04/08 03:24:34;;;;;;;26.20;16.17;;;8.30;99.90;;;;;;6132223;23;20144;-70
2023/04/08 03:27:00;;;;;;;29.20;16.90;;;8.30;99.90;;;;;;6139041;23;20383;-70
2023/04/08 03:29:25;;;;;;;27.57;16.40;;;8.30;99.90;;;;;;6138071;23;20364;-70
2023/04/08 03:31:51;;;;;;;25.80;14.47;;;8.30;99.90;;;;;;6138394;23;20168;-71
2023/04/08 03:34:17;;;;;;;24.77;16.87;;;8.30;99.90;;;;;;6138631;23;20140;-69
2023/04/08 03:36:42;;;;;;;27.13;16.40;;;8.30;99.90;;;;;;6138727;23;20406;-70
2023/04/08 03:39:09;;;;;;;22.33;13.30;;;8.30;99.90;;;;;;6139185;23;20167;-69
2023/04/08 03:41:35;;;;;;;20.17;13.90;;;8.30;99.90;;;;;;6139553;23;20219;-70
2023/04/08 03:44:01;;;;;;;19.63;14.37;;;8.40;99.90;;;;;;6139657;23;20364;-68
2023/04/08 03:46:26;;;;;;;28.37;17.30;;;8.40;99.90;;;;;;6138172;23;20376;-70
2023/04/08 03:48:52;;;;;;;25.10;17.90;;;8.40;99.90;;;;;;6138055;23;20167;-70
2023/04/08 03:51:18;;;;;;;21.40;14.00;;;8.40;99.90;;;;;;6137908;23;20526;-71
2023/04/08 03:53:43;;;;;;;18.03;13.60;;;8.40;99.90;;;;;;6134983;23;20155;-70
2023/04/08 03:56:09;;;;;;;23.80;16.17;;;8.40;99.90;;;;;;6139238;23;20144;-69
2023/04/08 03:58:35;;;;;;;32.40;18.37;;;8.40;99.90;;;;;;6139173;23;20466;-70
2023/04/08 04:01:00;;;;;;;26.67;16.90;;;8.30;99.90;;;;;;6106341;23;20211;-69
2023/04/08 04:03:26;;;;;;;23.23;16.30;;;8.30;99.90;;;;;;6112101;23;20555;-69
2023/04/08 04:05:51;;;;;;;25.93;19.20;;;8.30;99.90;;;;;;6138673;23;20159;-70
2023/04/08 04:08:17;;;;;;;31.87;19.43;;;8.30;99.90;;;;;;6137900;23;20160;-69
2023/04/08 04:10:43;;;;;;;28.67;17.70;;;8.30;99.90;;;;;;6139273;23;20136;-69
2023/04/08 04:13:08;;;;;;;21.77;15.60;;;8.30;99.90;;;;;;6138262;23;20196;-69
2023/04/08 04:15:38;;;;;;;19.33;14.87;;;8.30;99.90;;;;;;6137937;23;20144;-71
2023/04/08 04:18:03;;;;;;;22.73;15.37;;;8.30;99.90;;;;;;6138448;23;20163;-71
2023/04/08 04:20:29;;;;;;;27.10;18.43;;;8.30;99.90;;;;;;6113251;23;20411;-71
2023/04/08 04:22:55;;;;;;;31.60;20.10;;;8.20;99.90;;;;;;6139089;23;20167;-70
2023/04/08 04:25:21;;;;;;;25.27;17.93;;;8.30;99.90;;;;;;6138685;23;20136;-70
2023/04/08 04:27:46;;;;;;;27.40;16.30;;;8.30;99.90;;;;;;6138199;23;20136;-70
2023/04/08 04:30:14;;;;;;;24.73;15.50;;;8.20;99.90;;;;;;6138966;23;20509;-68
2023/04/08 04:32:41;;;;;;;41.87;22.40;;;8.20;99.90;;;;;;6138927;23;20561;-69
2023/04/08 04:35:10;;;;;;;26.67;16.90;;;8.20;99.90;;;;;;6139096;23;20383;-70
2023/04/08 04:37:36;;;;;;;27.53;17.03;;;8.20;99.90;;;;;;6139362;23;20379;-70
2023/04/08 04:40:02;;;;;;;26.77;18.10;;;8.30;99.90;;;;;;6140383;23;20407;-72
2023/04/08 04:42:28;;;;;;;29.60;18.63;;;8.20;99.90;;;;;;6114746;23;20573;-70
2023/04/08 04:44:53;;;;;;;32.13;16.80;;;8.20;99.90;;;;;;6141180;23;20395;-70
2023/04/08 04:47:19;;;;;;;37.10;20.00;;;8.20;99.90;;;;;;6139498;23;20136;-71
2023/04/08 04:49:45;;;;;;;26.07;17.70;;;8.20;99.90;;;;;;6138568;23;20144;-70
2023/04/08 04:52:10;;;;;;;29.97;16.87;;;8.20;99.90;;;;;;6138661;23;20195;-71
2023/04/08 04:54:36;;;;;;;31.53;19.57;;;8.20;99.90;;;;;;6131481;23;20152;-69
2023/04/08 04:57:02;;;;;;;35.83;21.73;;;8.20;99.90;;;;;;6139192;23;20147;-69
2023/04/08 04:59:27;;;;;;;44.33;20.53;;;8.20;99.90;;;;;;6138415;23;20234;-68
2023/04/08 05:01:53;;;;;;;31.80;18.47;;;8.20;99.90;;;;;;6142266;23;20159;-69
2023/04/08 05:04:19;;;;;;;28.20;18.30;;;8.30;99.90;;;;;;6143624;23;20140;-70
2023/04/08 05:06:44;;;;;;;25.83;17.50;;;8.30;99.90;;;;;;6144227;23;20132;-70
2023/04/08 05:09:10;;;;;;;32.97;20.07;;;8.30;99.90;;;;;;6143660;23;20578;-70
2023/04/08 05:11:35;;;;;;;32.03;18.60;;;8.40;99.90;;;;;;6143370;23;20168;-70
2023/04/08 05:14:01;;;;;;;35.00;21.67;;;8.30;99.90;;;;;;6143033;23;20224;-70
2023/04/08 05:16:26;;;;;;;33.73;20.07;;;8.30;99.90;;;;;;6107352;23;20437;-70
2023/04/08 05:18:52;;;;;;;44.67;24.43;;;8.30;99.90;;;;;;6117244;23;20509;-70
2023/04/08 05:21:17;;;;;;;33.90;20.40;;;8.30;99.90;;;;;;6109724;23;20168;-68
2023/04/08 05:23:43;;;;;;;32.70;19.87;;;8.30;99.90;;;;;;6140686;23;20147;-69
2023/04/08 05:26:08;;;;;;;37.40;20.63;;;8.30;99.90;;;;;;6144904;23;20140;-70
2023/04/08 05:28:34;;;;;;;26.50;17.73;;;8.40;99.90;;;;;;6143853;23;20163;-70
2023/04/08 05:31:00;;;;;;;29.40;19.90;;;8.40;99.90;;;;;;6144716;23;20136;-70
2023/04/08 05:33:26;;;;;;;23.83;16.97;;;8.40;99.90;;;;;;6086345;23;20649;-69
2023/04/08 05:35:54;;;;;;;23.63;15.87;;;8.40;99.90;;;;;;6144205;23;20136;-71
2023/04/08 05:38:20;;;;;;;36.07;20.70;;;8.40;99.90;;;;;;6142860;23;20143;-69
2023/04/08 05:40:45;;;;;;;30.63;19.87;;;8.40;99.90;;;;;;6108146;23;20491;-68
2023/04/08 05:43:11;;;;;;;31.27;19.53;;;8.40;99.90;;;;;;6143995;23;20164;-69
2023/04/08 05:45:36;;;;;;;27.00;15.83;;;8.40;99.90;;;;;;6106832;23;20154;-68
2023/04/08 05:48:02;;;;;;;21.00;14.33;;;8.40;99.90;;;;;;6143722;23;20137;-71
2023/04/08 05:50:27;;;;;;;32.07;20.87;;;8.40;99.90;;;;;;6148234;23;20141;-70
2023/04/08 05:52:53;;;;;;;35.37;18.67;;;8.50;99.90;;;;;;6150740;23;20175;-71
2023/04/08 05:55:19;;;;;;;38.13;23.37;;;8.50;99.90;;;;;;6145990;23;20144;-70
2023/04/08 05:57:45;;;;;;;36.57;23.23;;;8.60;99.90;;;;;;6111141;23;20214;-71
2023/04/08 06:00:10;;;;;;;29.10;17.97;;;8.60;99.90;;;;;;6146581;23;20403;-69
2023/04/08 06:02:37;;;;;;;28.20;18.40;;;8.60;99.90;;;;;;6145627;23;20593;-68
2023/04/08 06:05:03;;;;;;;32.33;17.27;;;8.60;99.90;;;;;;6110227;23;20140;-71
2023/04/08 06:07:29;;;;;;;39.47;22.57;;;8.50;99.90;;;;;;6111525;23;20387;-69
2023/04/08 06:09:55;;;;;;;30.70;18.20;;;8.60;99.90;;;;;;6087179;23;20383;-69
2023/04/08 06:12:22;;;;;;;39.57;24.50;;;8.60;99.90;;;;;;6148138;23;20419;-70
2023/04/08 06:14:53;;;;;;;36.63;20.97;;;8.50;99.90;;;;;;6088435;23;20175;-72
2023/04/08 06:17:18;;;;;;;39.47;22.47;;;8.50;99.90;;;;;;6110014;23;20399;-73
2023/04/08 06:19:44;;;;;;;40.30;24.73;;;8.50;99.90;;;;;;6120832;23;20411;-69
2023/04/08 06:22:10;;;;;;;36.60;22.23;;;8.50;99.90;;;;;;6145144;23;20187;-70
2023/04/08 06:24:35;;;;;;;29.03;17.07;;;8.50;99.90;;;;;;6137010;23;20140;-69
2023/04/08 06:27:01;;;;;;;31.07;19.00;;;8.50;99.90;;;;;;6146410;23;20144;-70
2023/04/08 06:29:28;;;;;;;34.63;20.60;;;8.50;99.90;;;;;;6145662;23;20166;-70
2023/04/08 06:31:54;;;;;;;36.87;21.70;;;8.50;99.90;;;;;;6146344;23;20433;-70
2023/04/08 06:34:20;;;;;;;32.10;19.20;;;8.60;99.90;;;;;;6109898;23;20380;-70
2023/04/08 06:36:46;;;;;;;28.60;18.57;;;8.60;99.90;;;;;;6146323;23;20670;-71
2023/04/08 06:39:12;;;;;;;28.80;18.47;;;8.60;99.90;;;;;;6111553;23;20183;-70
2023/04/08 06:41:37;;;;;;;38.13;22.40;;;8.70;99.90;;;;;;6110144;23;20414;-71
2023/04/08 06:44:17;;;;;;;27.03;17.20;;;8.80;99.90;;;;;;6111005;23;20528;-71
2023/04/08 06:46:42;;;;;;;37.03;22.97;;;8.80;99.90;;;;;;6145726;23;20447;-70
2023/04/08 06:49:08;;;;;;;47.93;27.63;;;8.80;99.90;;;;;;6146115;23;20461;-71
2023/04/08 06:51:34;;;;;;;38.30;23.80;;;8.80;99.90;;;;;;6146562;23;20195;-71
2023/04/08 06:53:59;;;;;;;39.20;25.20;;;8.90;99.90;;;;;;6143593;23;20219;-70
2023/04/08 06:56:25;;;;;;;37.53;24.00;;;8.90;99.90;;;;;;6146871;23;20383;-70
2023/04/08 06:58:52;;;;;;;40.10;25.50;;;8.90;99.90;;;;;;6149650;23;20155;-73
2023/04/08 07:01:17;;;;;;;41.40;24.93;;;8.90;99.90;;;;;;6122624;23;20202;-74
2023/04/08 07:03:43;;;;;;;40.10;24.93;;;9.00;99.90;;;;;;6150128;23;20371;-73
2023/04/08 07:06:09;;;;;;;39.10;24.30;;;9.10;99.90;;;;;;6099833;23;20152;-71
2023/04/08 07:08:35;;;;;;;38.37;25.40;;;9.20;99.90;;;;;;6088935;23;20144;-69
2023/04/08 07:11:01;;;;;;;35.50;22.37;;;9.40;99.90;;;;;;6147132;23;20219;-73
2023/04/08 07:13:28;;;;;;;38.37;24.90;;;9.50;99.90;;;;;;6115317;23;20545;-71
2023/04/08 07:15:54;;;;;;;44.97;27.87;;;9.50;99.90;;;;;;6112520;23;20386;-68
2023/04/08 07:18:20;;;;;;;49.40;29.90;;;9.50;99.90;;;;;;6149176;23;20361;-71
2023/04/08 07:20:51;;;;;;;49.57;30.50;;;9.50;99.90;;;;;;6115324;23;20433;-69
2023/04/08 07:23:17;;;;;;;40.40;24.17;;;9.40;99.90;;;;;;6113475;23;20419;-71
2023/04/08 07:25:48;;;;;;;48.40;30.60;;;9.40;99.90;;;;;;6111464;23;20376;-71
2023/04/08 07:28:14;;;;;;;38.67;24.50;;;9.50;99.90;;;;;;6088285;23;20380;-70
2023/04/08 07:30:40;;;;;;;40.30;26.80;;;9.60;99.90;;;;;;6089267;23;20395;-71
2023/04/08 07:33:05;;;;;;;45.63;29.23;;;9.70;99.90;;;;;;6123322;23;20427;-74
2023/04/08 07:35:32;;;;;;;56.17;34.07;;;9.90;99.90;;;;;;6122579;23;20475;-71
2023/04/08 07:37:58;;;;;;;43.80;31.43;;;10.00;99.90;;;;;;6148802;23;20147;-72
2023/04/08 07:40:23;;;;;;;47.57;30.50;;;10.10;99.90;;;;;;6112302;23;20852;-72
2023/04/08 07:42:49;;;;;;;43.37;30.73;;;10.30;99.90;;;;;;6123783;23;20164;-70
2023/04/08 07:45:16;;;;;;;46.57;33.60;;;10.40;99.90;;;;;;6151245;23;20143;-73
2023/04/08 07:47:43;;;;;;;43.57;30.20;;;10.50;99.90;;;;;;6116230;23;20464;-71
2023/04/08 07:50:09;;;;;;;42.37;27.67;;;10.60;99.90;;;;;;6090071;23;20427;-71
2023/04/08 07:52:34;;;;;;;43.50;30.20;;;10.70;99.90;;;;;;6151139;23;20404;-73
2023/04/08 07:55:00;;;;;;;42.90;29.43;;;10.70;99.90;;;;;;6141895;23;20411;-71
2023/04/08 07:57:26;;;;;;;43.07;28.83;;;10.80;99.90;;;;;;6151298;23;20155;-72
2023/04/08 07:59:52;;;;;;;40.93;28.93;;;10.90;99.90;;;;;;6147822;23;20408;-72
2023/04/08 08:02:18;;;;;;;33.80;24.00;;;10.90;99.90;;;;;;6148349;23;20168;-71
2023/04/08 08:04:43;;;;;;;41.30;28.17;;;10.90;99.90;;;;;;6147798;23;20136;-70
2023/04/08 08:07:09;;;;;;;31.97;22.20;;;10.90;99.90;;;;;;6148138;23;20253;-70
2023/04/08 08:09:35;;;;;;;33.30;22.03;;;10.90;99.90;;;;;;6141749;23;20528;-70
2023/04/08 08:12:00;;;;;;;47.20;30.10;;;11.10;99.90;;;;;;6114989;23;20428;-72
2023/04/08 08:14:26;;;;;;;47.60;29.43;;;11.10;99.90;;;;;;6090509;23;20152;-73
2023/04/08 08:16:53;;;;;;;42.63;28.23;;;11.10;99.90;;;;;;6150045;23;20164;-73
2023/04/08 08:19:19;;;;;;;38.17;27.20;;;11.10;99.90;;;;;;6113679;23;20419;-72
2023/04/08 08:21:45;;;;;;;40.17;28.87;;;11.10;99.90;;;;;;6123101;23;20392;-69
2023/04/08 08:24:12;;;;;;;39.37;29.10;;;11.20;99.90;;;;;;6119641;23;20411;-71
2023/04/08 08:26:38;;;;;;;41.40;28.77;;;11.10;99.90;;;;;;6090123;23;20603;-73
2023/04/08 08:29:05;;;;;;;31.57;24.47;;;11.30;99.90;;;;;;6127001;23;20372;-73
2023/04/08 08:31:31;;;;;;;33.87;25.03;;;11.40;99.90;;;;;;6118708;23;20205;-71
2023/04/08 08:33:56;;;;;;;35.77;25.33;;;11.40;99.90;;;;;;6068560;23;20383;-73
2023/04/08 08:36:22;;;;;;;34.57;26.20;;;11.50;99.90;;;;;;6118073;23;20143;-71
2023/04/08 08:38:47;;;;;;;41.93;30.03;;;11.50;99.90;;;;;;6095625;23;20155;-72
2023/04/08 08:41:14;;;;;;;38.73;28.13;;;11.60;99.90;;;;;;6094301;23;20144;-71
2023/04/08 08:43:40;;;;;;;34.37;25.43;;;11.60;99.90;;;;;;6096101;23;20157;-70
2023/04/08 08:46:10;;;;;;;42.30;28.23;;;11.60;99.90;;;;;;6118657;23;20385;-73
2023/04/08 08:48:37;;;;;;;37.57;28.40;;;11.70;99.90;;;;;;6154474;23;20371;-72
2023/04/08 08:51:13;;;;;;;36.13;25.90;;;11.70;99.90;;;;;;6097242;23;20415;-75
2023/04/08 08:53:44;;;;;;;38.50;27.10;;;11.80;99.90;;;;;;6095255;23;20399;-72
2023/04/08 08:56:09;;;;;;;33.20;24.47;;;11.90;99.90;;;;;;6097229;23;20423;-72
2023/04/08 08:58:35;;;;;;;37.23;25.17;;;11.90;99.90;;;;;;6120509;23;20382;-72
2023/04/08 09:01:01;;;;;;;35.97;27.83;;;11.80;99.90;;;;;;6130937;23;20466;-72
2023/04/08 09:03:27;;;;;;;37.13;27.17;;;12.00;99.90;;;;;;6095231;23;20151;-74
2023/04/08 09:05:59;;;;;;;34.67;26.50;;;12.20;99.90;;;;;;6119146;23;20151;-72
2023/04/08 09:08:32;;;;;;;37.33;28.77;;;12.30;99.90;;;;;;6095701;23;20376;-71
2023/04/08 09:11:17;;;;;;;30.83;23.57;;;12.40;99.90;;;;;;6095069;23;20384;-72
2023/04/08 09:13:44;;;;;;;32.50;24.00;;;12.30;99.90;;;;;;6097692;23;20433;-71
2023/04/08 09:16:16;;;;;;;35.67;27.00;;;12.30;99.90;;;;;;6118195;23;20391;-73
2023/04/08 09:18:43;;;;;;;35.20;25.63;;;12.30;99.90;;;;;;6128598;23;20380;-71
2023/04/08 09:21:10;;;;;;;35.53;26.50;;;12.30;99.90;;;;;;6119294;23;20497;-75
2023/04/08 09:23:56;;;;;;;32.97;26.23;;;12.20;99.30;;;;;;6119021;23;20388;-72
2023/04/08 09:26:23;;;;;;;34.00;25.47;;;12.20;98.70;;;;;;6095053;23;20384;-73
2023/04/08 09:29:06;;;;;;;36.47;26.20;;;12.10;99.90;;;;;;6119715;23;20415;-72
2023/04/08 09:31:40;;;;;;;36.90;26.97;;;12.40;98.40;;;;;;6133114;23;20522;-72
2023/04/08 09:34:15;;;;;;;42.00;29.27;;;12.30;97.70;;;;;;6098849;23;20390;-72
2023/04/08 09:36:41;;;;;;;44.30;30.10;;;12.30;97.60;;;;;;6094505;23;20376;-74
2023/04/08 09:39:07;;;;;;;36.20;24.97;;;12.20;97.10;;;;;;6096596;23;20412;-72
2023/04/08 09:41:34;;;;;;;39.70;25.47;;;12.20;98.20;;;;;;6121404;23;20465;-74
2023/04/08 09:44:03;;;;;;;43.23;29.30;;;12.20;97.90;;;;;;6097525;23;20419;-73
2023/04/08 09:46:48;;;;;;;46.90;30.73;;;12.30;97.10;;;;;;6095800;23;20375;-74
2023/04/08 09:49:30;;;;;;;54.90;33.60;;;12.40;96.40;;;;;;6117399;23;20376;-73
2023/04/08 09:52:31;;;;;;;57.17;35.10;;;12.40;93.90;;;;;;6118647;23;20669;-72
2023/04/08 09:55:03;;;;;;;49.77;31.43;;;12.60;94.00;;;;;;6094699;23;20466;-72
2023/04/08 09:58:13;;;;;;;64.73;36.17;;;12.90;93.70;;;;;;6094458;23;20705;-71
2023/04/08 10:00:49;;;;;;;55.77;33.40;;;13.00;90.30;;;;;;6015048;23;20441;-73
2023/04/08 10:03:37;;;;;;;63.80;37.80;;;13.20;89.20;;;;;;6005109;23;20418;-73
2023/04/08 10:06:03;;;;;;;63.00;36.63;;;13.40;85.60;;;;;;6010509;23;20422;-74
2023/04/08 10:08:31;;;;;;;54.30;34.60;;;13.50;86.20;;;;;;5979310;23;20379;-72
2023/04/08 10:10:57;;;;;;;68.90;39.67;;;13.60;86.80;;;;;;5977785;23;20378;-73
2023/04/08 10:13:27;;;;;;;56.33;37.57;;;13.60;86.30;;;;;;5982609;23;20431;-73
2023/04/08 10:16:16;;;;;;;50.57;34.30;;;13.80;86.40;;;;;;5981787;23;20226;-75
2023/04/08 10:18:43;;;;;;;51.23;33.90;;;13.70;85.90;;;;;;6002490;23;20867;-71
2023/04/08 10:21:34;;;;;;;46.70;32.23;;;13.80;83.00;;;;;;5980540;23;20483;-72
2023/04/08 10:24:05;;;;;;;46.00;33.43;;;13.80;83.40;;;;;;5981422;23;20670;-73
2023/04/08 10:26:33;;;;;;;39.33;31.33;;;13.70;84.50;;;;;;6038286;23;20371;-73
2023/04/08 10:29:17;;;;;;;42.10;31.13;;;13.80;84.60;;;;;;5981984;23;20439;-72
2023/04/08 10:31:47;;;;;;;45.57;33.67;;;13.70;84.20;;;;;;6037417;23;20540;-72
2023/04/08 10:34:25;;;;;;;47.63;34.60;;;13.70;87.70;;;;;;5981037;23;20469;-74
2023/04/08 10:36:52;;;;;;;39.17;31.90;;;13.60;84.50;;;;;;6023473;23;20392;-72
2023/04/08 10:39:18;;;;;;;38.30;29.87;;;13.50;85.30;;;;;;6068634;23;20439;-74
2023/04/08 10:41:45;;;;;;;42.93;33.70;;;13.50;87.70;;;;;;6091144;23;20419;-72
2023/04/08 10:44:16;;;;;;;42.30;33.40;;;13.60;86.10;;;;;;6066220;23;20404;-72
2023/04/08 10:46:42;;;;;;;41.57;31.17;;;13.60;85.40;;;;;;6069352;23;20404;-74
2023/04/08 10:49:08;;;;;;;34.60;28.20;;;13.60;86.00;;;;;;6094130;23;20658;-75
2023/04/08 10:51:34;;;;;;;32.63;28.00;;;13.50;88.10;;;;;;6092593;23;20437;-73
2023/04/08 10:54:08;;;;;;;32.27;28.63;;;13.60;88.50;;;;;;6100480;23;20228;-75
2023/04/08 10:56:35;;;;;;;29.10;25.97;;;13.80;83.20;;;;;;6129858;23;20404;-73
2023/04/08 10:59:00;;;;;;;28.27;25.33;;;13.80;83.60;;;;;;6090369;23;20463;-73
2023/04/08 11:01:39;;;;;;;28.57;24.50;;;13.90;81.70;;;;;;6097941;23;20447;-74
2023/04/08 11:04:13;;;;;;;29.03;25.93;;;14.00;81.50;;;;;;6100787;23;20171;-74
2023/04/08 11:06:41;;;;;;;28.27;25.23;;;13.80;82.00;;;;;;6066534;23;20454;-72
2023/04/08 11:09:08;;;;;;;30.93;27.57;;;13.90;82.40;;;;;;6056815;23;20552;-74
2023/04/08 11:11:34;;;;;;;30.33;27.03;;;13.80;83.00;;;;;;6058149;23;20413;-72
2023/04/08 11:14:00;;;;;;;32.80;28.97;;;13.80;81.80;;;;;;6060918;23;20393;-72
2023/04/08 11:16:28;;;;;;;28.97;25.90;;;13.90;79.30;;;;;;6062311;23;20400;-73
2023/04/08 11:18:55;;;;;;;30.80;24.37;;;13.90;81.50;;;;;;6061489;23;20380;-73
2023/04/08 11:21:28;;;;;;;32.50;26.33;;;13.90;77.10;;;;;;6087453;23;20416;-74
2023/04/08 11:23:54;;;;;;;31.97;26.00;;;13.70;68.60;;;;;;6059287;23;20402;-74
2023/04/08 11:26:20;;;;;;;32.30;26.80;;;13.60;72.50;;;;;;6057921;23;20392;-74
2023/04/08 11:28:50;;;;;;;34.27;27.10;;;13.60;76.20;;;;;;6059371;23;20643;-73
2023/04/08 11:31:18;;;;;;;31.00;25.47;;;13.90;76.50;;;;;;6037092;23;20393;-74
2023/04/08 11:33:47;;;;;;;33.37;23.93;;;14.00;76.70;;;;;;6058662;23;20370;-74
2023/04/08 11:36:14;;;;;;;29.17;23.00;;;14.10;74.10;;;;;;6060502;23;20377;-71
2023/04/08 11:38:40;;;;;;;37.13;29.37;;;14.20;75.50;;;;;;6060684;23;20476;-74
2023/04/08 11:41:06;;;;;;;37.10;30.20;;;14.10;74.70;;;;;;6094326;23;20974;-72
2023/04/08 11:43:32;;;;;;;35.83;25.90;;;14.00;75.90;;;;;;6075979;23;20384;-73
2023/04/08 11:45:59;;;;;;;38.00;28.50;;;14.00;76.30;;;;;;6120775;23;20404;-73
2023/04/08 11:48:24;;;;;;;40.37;28.97;;;14.00;73.00;;;;;;6122730;23;20387;-73
2023/04/08 11:51:03;;;;;;;41.20;29.30;;;14.00;68.30;;;;;;6100514;23;20714;-73
2023/04/08 11:53:29;;;;;;;48.23;33.17;;;13.80;68.60;;;;;;6098990;23;20528;-74
2023/04/08 11:55:55;;;;;;;45.97;29.33;;;13.60;71.20;;;;;;6073365;23;20491;-74
2023/04/08 11:58:21;;;;;;;39.23;28.27;;;13.30;73.50;;;;;;6095622;23;20151;-72
2023/04/08 12:00:48;;;;;;;47.17;32.13;;;13.30;73.70;;;;;;6120028;23;20449;-72
2023/04/08 12:03:14;;;;;;;33.07;23.30;;;13.50;74.10;;;;;;6157950;23;20166;-74
2023/04/08 12:05:40;;;;;;;40.03;27.83;;;13.60;75.90;;;;;;6121523;23;20419;-75
2023/04/08 12:08:05;;;;;;;41.93;28.40;;;13.80;73.00;;;;;;6097725;23;20435;-74
2023/04/08 12:10:32;;;;;;;42.03;27.73;;;13.80;69.00;;;;;;6117652;23;20150;-73
2023/04/08 12:12:57;;;;;;;37.63;25.60;;;13.70;67.70;;;;;;6155900;23;20215;-74
2023/04/08 12:15:23;;;;;;;39.93;26.40;;;13.40;69.50;;;;;;6097033;23;20383;-74
2023/04/08 12:17:49;;;;;;;43.33;27.30;;;13.50;70.60;;;;;;6122775;23;20391;-73
2023/04/08 12:20:16;;;;;;;47.17;29.50;;;13.40;71.40;;;;;;6097769;23;20442;-74
2023/04/08 12:22:42;;;;;;;40.13;25.77;;;13.20;71.60;;;;;;6157170;23;20400;-76
2023/04/08 12:25:08;;;;;;;36.90;26.10;;;13.10;70.40;;;;;;6119655;23;20820;-73
2023/04/08 12:27:34;;;;;;;28.37;20.80;;;13.00;67.90;;;;;;6098637;23;20206;-74
2023/04/08 12:30:01;;;;;;;31.43;22.60;;;13.10;71.20;;;;;;6119293;23;20383;-73
2023/04/08 12:32:27;;;;;;;36.77;25.30;;;13.30;69.40;;;;;;6118477;23;20391;-74
2023/04/08 12:34:53;;;;;;;39.00;25.40;;;13.30;68.20;;;;;;6094494;23;20395;-74
2023/04/08 12:37:21;;;;;;;38.17;26.70;;;13.20;67.90;;;;;;6096916;23;20379;-71